createdAt,value
2022-10-17T00:00:47.724Z,11.73
2022-10-17T00:06:12.576Z,12.20
2022-10-17T00:11:19.534Z,16.63
2022-10-17T00:16:26.430Z,8.17
2022-10-17T00:21:29.212Z,9.13
2022-10-17T00:26:32.072Z,12.03
2022-10-17T00:31:35.899Z,9.83
2022-10-17T00:36:38.564Z,11.30
2022-10-17T00:41:41.259Z,11.97
2022-10-17T00:46:43.940Z,9.00
2022-10-17T00:51:49.243Z,9.13
2022-10-17T00:56:54.785Z,12.20
2022-10-17T01:02:00.930Z,9.53
2022-10-17T01:07:03.782Z,8.70
2022-10-17T01:12:10.921Z,11.07
2022-10-17T01:17:19.717Z,12.07
2022-10-17T01:22:28.962Z,12.20
2022-10-17T01:27:31.808Z,9.23
2022-10-17T01:32:40.361Z,8.13
2022-10-17T01:37:58.671Z,8.47
2022-10-17T01:43:07.713Z,9.43
2022-10-17T01:48:37.488Z,8.13
2022-10-17T01:53:43.076Z,9.43
2022-10-17T01:58:51.548Z,7.87
2022-10-17T02:03:55.385Z,10.00
2022-10-17T02:08:58.109Z,10.20
2022-10-17T02:14:06.661Z,9.93
2022-10-17T02:19:25.068Z,9.07
2022-10-17T02:24:38.454Z,9.53
2022-10-17T02:29:53.311Z,8.60
2022-10-17T02:34:56.494Z,9.83
2022-10-17T02:40:00.798Z,7.80
2022-10-17T02:45:03.532Z,9.00
2022-10-17T02:50:06.339Z,10.50
2022-10-17T02:55:18.288Z,9.32
2022-10-17T03:00:23.844Z,10.10
2022-10-17T03:05:28.096Z,10.60
2022-10-17T03:10:31.052Z,9.75
2022-10-17T03:15:34.001Z,8.63
2022-10-17T03:20:36.996Z,8.52
2022-10-17T03:25:39.701Z,7.40
2022-10-17T03:30:42.558Z,10.40
2022-10-17T03:35:45.885Z,8.53
2022-10-17T03:40:55.518Z,10.25
2022-10-17T03:45:59.132Z,8.35
2022-10-17T03:51:06.377Z,11.07
2022-10-17T03:56:17.468Z,10.70
2022-10-17T04:01:24.331Z,10.20
2022-10-17T04:06:27.333Z,10.17
2022-10-17T04:11:30.174Z,11.53
2022-10-17T04:16:35.671Z,8.60
2022-10-17T04:21:45.105Z,9.35
2022-10-17T04:26:52.180Z,10.73
2022-10-17T04:31:56.672Z,9.45
2022-10-17T04:37:19.754Z,9.57
2022-10-17T04:42:24.899Z,10.75
2022-10-17T04:47:29.353Z,11.95
2022-10-17T04:52:35.330Z,10.43
2022-10-17T04:57:38.360Z,13.30
2022-10-17T05:02:55.774Z,10.33
2022-10-17T05:07:58.887Z,12.23
2022-10-17T05:13:06.184Z,13.03
2022-10-17T05:18:10.028Z,9.97
2022-10-17T05:23:13.244Z,14.10
2022-10-17T05:28:18.778Z,13.50
2022-10-17T05:33:22.806Z,10.38
2022-10-17T05:38:26.211Z,10.75
2022-10-17T05:43:29.241Z,12.33
2022-10-17T05:48:32.004Z,11.35
2022-10-17T05:53:36.475Z,13.35
2022-10-17T05:58:54.105Z,12.80
2022-10-17T06:04:14.573Z,13.10
2022-10-17T06:09:17.995Z,12.52
2022-10-17T06:14:23.788Z,14.83
2022-10-17T06:19:30.360Z,10.68
2022-10-17T06:24:33.143Z,12.52
2022-10-17T06:29:39.514Z,19.42
2022-10-17T06:34:42.546Z,10.93
2022-10-17T06:39:46.644Z,13.90
2022-10-17T06:44:52.934Z,10.90
2022-10-17T06:49:58.372Z,11.85
2022-10-17T06:55:07.056Z,7.72
2022-10-17T07:00:23.730Z,12.48
2022-10-17T07:05:30.036Z,16.20
2022-10-17T07:10:38.398Z,14.77
2022-10-17T07:15:43.322Z,14.20
2022-10-17T07:20:52.937Z,17.87
2022-10-17T07:26:02.994Z,15.83
2022-10-17T07:31:06.771Z,18.03
2022-10-17T07:36:10.064Z,15.80
2022-10-17T07:41:17.801Z,24.33
2022-10-17T07:46:24.259Z,19.33
2022-10-17T07:51:28.045Z,19.57
2022-10-17T07:56:30.788Z,24.20
2022-10-17T08:01:33.375Z,21.03
2022-10-17T08:21:45.274Z,12.13
2022-10-17T08:26:49.572Z,8.43
2022-10-17T08:31:58.661Z,10.43
2022-10-17T08:37:04.392Z,10.17
2022-10-17T08:42:07.240Z,8.47
2022-10-17T08:47:16.313Z,6.13
2022-10-17T08:52:25.792Z,8.53
2022-10-17T08:57:29.796Z,6.47
2022-10-17T09:02:48.619Z,8.60
2022-10-17T09:07:54.362Z,9.10
2022-10-17T09:12:56.922Z,7.87
2022-10-17T09:18:07.961Z,15.33
2022-10-17T09:23:11.165Z,5.13
2022-10-17T09:28:19.329Z,10.60
2022-10-17T09:33:35.237Z,8.03
2022-10-17T09:38:53.813Z,6.17
2022-10-17T09:43:57.295Z,5.53
2022-10-17T09:49:14.891Z,8.57
2022-10-17T09:54:26.653Z,9.57
2022-10-17T09:59:36.632Z,10.17
2022-10-17T10:05:03.881Z,6.27
2022-10-17T10:10:22.689Z,8.97
2022-10-17T10:15:33.646Z,9.53
2022-10-17T10:20:37.946Z,11.40
2022-10-17T10:25:54.733Z,12.47
2022-10-17T10:30:59.053Z,8.87
2022-10-17T10:36:03.646Z,16.37
2022-10-17T10:41:08.196Z,9.83
2022-10-17T10:46:40.644Z,10.57
2022-10-17T10:51:48.199Z,8.27
2022-10-17T10:56:53.641Z,9.47
2022-10-17T11:02:05.358Z,10.13
2022-10-17T11:07:13.278Z,11.63
2022-10-17T11:12:30.961Z,8.90
2022-10-17T11:17:33.682Z,14.07
2022-10-17T11:22:49.594Z,12.27
2022-10-17T11:27:52.106Z,12.63
2022-10-17T11:32:57.272Z,13.57
2022-10-17T11:38:18.856Z,10.13
2022-10-17T11:43:27.417Z,14.17
2022-10-17T11:48:34.373Z,15.13
2022-10-17T11:54:03.610Z,14.87
2022-10-17T11:59:18.669Z,11.20
2022-10-17T12:04:42.806Z,12.37
2022-10-17T12:09:58.788Z,12.27
2022-10-17T12:15:13.694Z,15.77
2022-10-17T12:20:25.977Z,15.67
2022-10-17T12:25:32.169Z,15.23
2022-10-17T12:30:34.896Z,13.35
2022-10-17T12:35:38.136Z,13.10
2022-10-17T12:40:48.523Z,11.97
2022-10-17T12:45:54.092Z,12.57
2022-10-17T12:51:30.871Z,13.43
2022-10-17T12:56:30.598Z,24.23
2022-10-17T13:01:34.840Z,13.17
2022-10-17T13:06:40.559Z,11.43
2022-10-17T13:11:43.393Z,14.30
2022-10-17T13:16:52.338Z,14.47
2022-10-17T13:21:59.732Z,15.10
2022-10-17T13:27:05.907Z,14.27
2022-10-17T13:32:09.924Z,16.97
2022-10-17T13:37:14.437Z,14.10
2022-10-17T13:42:24.930Z,14.67
2022-10-17T13:47:32.299Z,18.77
2022-10-17T13:57:37.460Z,11.43
2022-10-17T14:02:41.476Z,11.67
2022-10-17T14:08:09.854Z,12.07
2022-10-17T14:13:08.431Z,12.40
2022-10-17T14:18:17.409Z,11.70
2022-10-17T14:23:34.421Z,18.40
2022-10-17T14:28:37.518Z,14.60
2022-10-17T14:33:44.059Z,12.07
2022-10-17T14:38:50.374Z,14.30
2022-10-17T14:44:07.128Z,17.17
2022-10-17T14:49:23.254Z,11.43
2022-10-17T14:54:29.341Z,13.83
2022-10-17T14:59:59.762Z,16.90
2022-10-17T15:04:54.687Z,15.60
2022-10-17T15:09:57.374Z,23.77
2022-10-17T15:15:00.143Z,17.83
2022-10-17T15:20:02.701Z,18.00
2022-10-17T15:25:05.631Z,22.27
2022-10-17T15:30:20.689Z,18.53
2022-10-17T15:35:24.614Z,22.00
2022-10-17T15:40:29.270Z,20.20
2022-10-17T15:45:33.484Z,21.67
2022-10-17T15:50:36.157Z,37.67
2022-10-17T15:55:39.174Z,19.93
2022-10-17T16:00:42.445Z,17.67
2022-10-17T16:05:45.084Z,25.53
2022-10-17T16:10:50.622Z,19.20
2022-10-17T16:15:54.034Z,23.80
2022-10-17T16:20:56.871Z,31.63
2022-10-17T16:25:59.831Z,24.67
2022-10-17T16:31:02.474Z,24.50
2022-10-17T16:36:04.975Z,27.00
2022-10-17T16:41:20.649Z,27.03
2022-10-17T16:46:23.852Z,29.90
2022-10-17T16:51:26.907Z,27.30
2022-10-17T16:56:31.820Z,34.13
2022-10-17T17:01:35.078Z,33.47
2022-10-17T17:06:41.688Z,35.53
2022-10-17T17:11:45.237Z,29.03
2022-10-17T17:16:47.931Z,31.63
2022-10-17T17:21:51.164Z,33.73
2022-10-17T17:26:54.480Z,34.00
2022-10-17T17:31:57.414Z,33.30
2022-10-17T17:37:00.070Z,38.57
2022-10-17T17:42:02.805Z,48.80
2022-10-17T17:47:05.651Z,44.30
2022-10-17T17:52:08.804Z,40.57
2022-10-17T17:57:12.994Z,39.37
2022-10-17T18:02:17.040Z,38.17
2022-10-17T18:07:20.379Z,34.53
2022-10-17T18:12:23.560Z,43.40
2022-10-17T18:17:26.290Z,38.77
2022-10-17T18:22:29.488Z,33.27
2022-10-17T18:27:32.446Z,30.10
2022-10-17T18:32:35.700Z,33.93
2022-10-17T18:37:38.867Z,33.13
2022-10-17T18:42:44.434Z,33.23
2022-10-17T18:47:48.103Z,33.83
2022-10-17T18:52:51.182Z,31.93
2022-10-17T18:57:54.128Z,29.83
2022-10-17T19:02:57.113Z,25.07
2022-10-17T19:08:00.030Z,23.23
2022-10-17T19:13:03.110Z,21.13
2022-10-17T19:18:06.384Z,22.93
2022-10-17T19:23:09.469Z,20.07
2022-10-17T19:28:15.044Z,22.87
2022-10-17T19:33:18.067Z,21.40
2022-10-17T19:38:21.909Z,22.40
2022-10-17T19:43:25.365Z,26.50
2022-10-17T19:48:31.013Z,23.77
2022-10-17T19:53:34.445Z,21.73
2022-10-17T19:58:46.279Z,20.80
2022-10-17T20:03:49.248Z,22.60
2022-10-17T20:08:51.920Z,22.57
2022-10-17T20:13:55.540Z,23.03
2022-10-17T20:19:02.879Z,24.87
2022-10-17T20:24:06.612Z,22.67
2022-10-17T20:29:12.644Z,24.53
2022-10-17T20:34:16.514Z,21.67
2022-10-17T20:39:20.041Z,21.23
2022-10-17T20:44:22.875Z,18.43
2022-10-17T20:49:25.534Z,20.20
2022-10-17T20:54:28.720Z,19.97
2022-10-17T20:59:31.743Z,17.67
2022-10-17T21:04:46.492Z,17.17
2022-10-17T21:09:49.941Z,19.47
2022-10-17T21:14:52.386Z,19.13
2022-10-17T21:19:55.946Z,18.80
2022-10-17T21:24:58.341Z,16.20
2022-10-17T21:30:01.514Z,16.47
2022-10-17T21:35:05.020Z,19.30
2022-10-17T21:40:07.781Z,15.73
2022-10-17T21:45:15.968Z,20.40
2022-10-17T21:50:22.966Z,14.87
2022-10-17T21:55:25.443Z,16.30
2022-10-17T22:00:28.045Z,15.80
2022-10-17T22:05:31.060Z,16.87
2022-10-17T22:10:36.029Z,17.90
2022-10-17T22:15:38.652Z,14.53
2022-10-17T22:20:41.499Z,16.97
2022-10-17T22:25:44.070Z,17.47
2022-10-17T22:30:46.642Z,14.17
2022-10-17T22:35:50.109Z,15.63
2022-10-17T22:40:53.055Z,15.97
2022-10-17T22:46:02.185Z,13.33
2022-10-17T22:51:04.751Z,20.33
2022-10-17T22:56:11.745Z,16.33
2022-10-17T23:01:15.911Z,13.50
2022-10-17T23:06:19.133Z,16.70
2022-10-17T23:11:21.786Z,13.30
2022-10-17T23:16:24.393Z,13.03
2022-10-17T23:21:26.841Z,13.17
2022-10-17T23:26:29.506Z,13.43
2022-10-17T23:31:32.434Z,14.03
2022-10-17T23:36:35.070Z,13.47
2022-10-17T23:41:38.094Z,12.27
2022-10-17T23:46:40.856Z,18.40
2022-10-17T23:51:43.540Z,10.77
2022-10-17T23:56:46.135Z,8.53
